createdAt,value
2023-04-18T00:04:50.810Z,101557.03
2023-04-18T00:14:53.961Z,101554.63
2023-04-18T00:24:58.752Z,101552.16
2023-04-18T00:35:02.258Z,101548.78
2023-04-18T00:45:08.307Z,101549.66
2023-04-18T00:55:11.951Z,101556.59
2023-04-18T01:05:17.630Z,101551.53
2023-04-18T01:15:20.508Z,101542.97
2023-04-18T01:25:24.980Z,101529.31
2023-04-18T01:35:28.332Z,101529.31
2023-04-18T01:45:33.810Z,101527.63
2023-04-18T01:55:38.007Z,101529.34
2023-04-18T02:05:43.688Z,101525.91
2023-04-18T02:15:46.618Z,101525.88
2023-04-18T02:25:52.489Z,101524.16
2023-04-18T02:35:55.896Z,101520.72
2023-04-18T02:45:59.993Z,101518.09
2023-04-18T02:56:04.038Z,101524.09
2023-04-18T03:06:28.409Z,101517.25
2023-04-18T03:16:33.087Z,101526.59
2023-04-18T03:26:39.580Z,101531.69
2023-04-18T03:36:43.572Z,101535.03
2023-04-18T03:46:49.515Z,101535.88
2023-04-18T03:56:52.664Z,101534.03
2023-04-18T04:06:58.039Z,101540.84
2023-04-18T04:17:01.443Z,101554.47
2023-04-18T04:27:08.808Z,101564.41
2023-04-18T04:37:14.223Z,101561.88
2023-04-18T04:47:37.421Z,101576.44
2023-04-18T04:57:40.877Z,101587.22
2023-04-18T05:08:01.834Z,101588.13
2023-04-18T05:18:05.385Z,101590.06
2023-04-18T05:28:10.677Z,101610.00
2023-04-18T05:38:14.530Z,101622.97
2023-04-18T05:48:19.106Z,101627.56
2023-04-18T05:58:22.138Z,101623.38
2023-04-18T06:08:26.961Z,101614.88
2023-04-18T06:18:29.938Z,101626.88
2023-04-18T06:28:36.512Z,101628.56
2023-04-18T06:38:39.642Z,101625.13
2023-04-18T06:48:43.926Z,101628.50
2023-04-18T06:58:47.143Z,101630.16
2023-04-18T07:08:53.953Z,101639.44
2023-04-18T07:18:57.765Z,101640.34
2023-04-18T07:29:02.244Z,101646.97
2023-04-18T07:39:05.503Z,101647.06
2023-04-18T07:49:09.811Z,101645.13
2023-04-18T07:59:13.418Z,101639.06
2023-04-18T08:09:19.414Z,101649.06
2023-04-18T08:19:23.779Z,101662.16
2023-04-18T08:29:27.996Z,101666.69
2023-04-18T08:39:31.308Z,101670.19
2023-04-18T08:49:36.352Z,101664.94
2023-04-18T08:59:40.588Z,101668.41
2023-04-18T09:09:47.476Z,101669.25
2023-04-18T09:19:51.101Z,101663.00
2023-04-18T09:29:57.819Z,101668.19
2023-04-18T09:40:01.655Z,101664.75
2023-04-18T09:50:07.735Z,101650.72
2023-04-18T10:00:17.763Z,101636.28
2023-04-18T10:10:23.140Z,101622.28
2023-04-18T10:20:27.092Z,101630.25
2023-04-18T10:30:54.498Z,101630.53
2023-04-18T10:41:31.646Z,101624.69
2023-04-18T10:51:36.080Z,101616.19
2023-04-18T11:01:39.384Z,101611.50
2023-04-18T11:11:44.681Z,101605.22
2023-04-18T11:21:48.746Z,101598.34
2023-04-18T11:31:57.481Z,101591.28
2023-04-18T11:42:01.559Z,101586.81
2023-04-18T11:52:13.151Z,101586.78
2023-04-18T12:02:17.264Z,101587.78
2023-04-18T12:12:21.817Z,101590.44
2023-04-18T12:22:43.174Z,101586.00
2023-04-18T12:32:50.795Z,101583.19
2023-04-18T12:42:55.861Z,101573.34
2023-04-18T13:15:31.043Z,101569.47
2023-04-18T13:25:35.616Z,101563.34
2023-04-18T13:35:38.796Z,101549.66
2023-04-18T13:45:43.265Z,101543.97
2023-04-18T13:55:47.413Z,101553.03
2023-04-18T14:05:52.215Z,101546.78
2023-04-18T14:15:55.437Z,101558.75
2023-04-18T14:26:00.006Z,101559.44
2023-04-18T14:36:03.158Z,101552.25
2023-04-18T14:46:13.794Z,101542.13
2023-04-18T14:56:20.968Z,101548.63
2023-04-18T15:06:25.736Z,101553.50
2023-04-18T15:16:28.829Z,101540.97
2023-04-18T15:26:33.340Z,101540.53
2023-04-18T15:36:36.869Z,101534.59
2023-04-18T15:46:41.451Z,101535.19
2023-04-18T15:56:44.863Z,101537.16
2023-04-18T16:06:49.443Z,101524.63
2023-04-18T16:16:53.827Z,101517.56
2023-04-18T16:26:58.638Z,101514.31
2023-04-18T16:37:01.719Z,101534.88
2023-04-18T16:47:08.436Z,101527.28
2023-04-18T16:57:12.550Z,101522.03
2023-04-18T17:07:16.729Z,101525.56
2023-04-18T17:17:19.643Z,101520.50
2023-04-18T17:27:24.118Z,101530.97
2023-04-18T17:37:27.262Z,101527.50
2023-04-18T17:47:33.618Z,101532.22
2023-04-18T17:57:37.325Z,101547.94
2023-04-18T18:07:43.871Z,101551.91
2023-04-18T18:17:49.810Z,101554.59
2023-04-18T18:27:54.674Z,101569.63
2023-04-18T18:37:57.853Z,101579.28
2023-04-18T18:48:03.858Z,101583.09
2023-04-18T18:58:07.878Z,101601.22
2023-04-18T19:08:12.386Z,101613.47
2023-04-18T19:18:15.417Z,101622.31
2023-04-18T19:28:19.903Z,101630.09
2023-04-18T19:38:22.953Z,101639.72
2023-04-18T19:48:27.986Z,101636.47
2023-04-18T19:58:38.114Z,101649.91
2023-04-18T20:08:42.937Z,101652.50
2023-04-18T20:18:47.324Z,101650.00
2023-04-18T20:28:52.472Z,101645.16
2023-04-18T20:38:55.575Z,101649.47
2023-04-18T20:48:59.875Z,101652.16
2023-04-18T20:59:04.764Z,101658.31
2023-04-18T21:09:09.665Z,101659.06
2023-04-18T21:19:12.897Z,101667.94
2023-04-18T21:29:17.503Z,101664.91
2023-04-18T21:39:20.695Z,101675.53
2023-04-18T21:49:24.966Z,101666.22
2023-04-18T21:59:28.331Z,101678.28
2023-04-18T22:09:36.342Z,101665.56
2023-04-18T22:19:39.758Z,101672.19
2023-04-18T22:29:44.188Z,101672.53
2023-04-18T22:39:47.098Z,101670.47
2023-04-18T22:49:51.903Z,101683.91
2023-04-18T22:59:54.845Z,101685.63
2023-04-18T23:09:59.607Z,101688.03
2023-04-18T23:20:02.726Z,101673.72
2023-04-18T23:30:08.888Z,101685.84
2023-04-18T23:40:12.158Z,101675.75
2023-04-18T23:50:16.561Z,101681.66
